Time;durP1;ratioP1;P1;durP2;ratioP2;P2;SDS_P1;SDS_P2;PMS_P1;PMS_P2;Temp;Humidity;BMP_temperature;BMP_pressure;BME280_temperature;BME280_humidity;BME280_pressure;Samples;Min_cycle;Max_cycle;Signal;HPM_P1;HPM_P2
2022/10/09 00:01:56;;;;;;;8.70;2.40;;;11.40;99.90;;;;;;5005788;28;20038;-76
2022/10/09 00:04:24;;;;;;;14.85;2.58;;;11.40;99.90;;;;;;4977227;28;20065;-75
2022/10/09 00:06:52;;;;;;;6.07;1.85;;;11.40;99.90;;;;;;4995175;28;20053;-75
2022/10/09 00:09:20;;;;;;;3.83;1.88;;;11.50;99.90;;;;;;5011397;28;20054;-75
2022/10/09 00:11:47;;;;;;;3.80;1.75;;;11.50;99.90;;;;;;4959950;28;20077;-75
2022/10/09 00:14:14;;;;;;;7.40;1.73;;;11.50;99.90;;;;;;4982983;28;20050;-75
2022/10/09 00:16:42;;;;;;;3.90;1.40;;;11.50;99.90;;;;;;5011934;28;20147;-76
2022/10/09 00:19:09;;;;;;;3.03;1.73;;;11.50;99.90;;;;;;5010288;28;20257;-76
2022/10/09 00:21:36;;;;;;;6.55;1.50;;;11.60;99.90;;;;;;5001232;28;20101;-75
2022/10/09 00:24:05;;;;;;;6.20;2.17;;;11.60;99.90;;;;;;5001481;28;20180;-76
2022/10/09 00:26:33;;;;;;;5.57;1.83;;;11.60;99.90;;;;;;4995146;28;20050;-75
2022/10/09 00:29:00;;;;;;;5.35;1.80;;;11.60;99.90;;;;;;5011821;28;20453;-75
2022/10/09 00:31:28;;;;;;;5.63;1.63;;;11.60;99.90;;;;;;5011324;28;20129;-75
2022/10/09 00:33:56;;;;;;;3.58;1.45;;;11.60;99.90;;;;;;4997508;28;20054;-75
2022/10/09 00:36:27;;;;;;;5.70;1.98;;;11.60;99.90;;;;;;4988818;28;20536;-75
2022/10/09 00:38:55;;;;;;;7.20;1.88;;;11.70;99.90;;;;;;4996078;28;20054;-76
2022/10/09 00:41:27;;;;;;;5.88;1.50;;;11.70;99.90;;;;;;4995697;28;20711;-75
2022/10/09 00:43:59;;;;;;;3.92;1.70;;;11.70;99.90;;;;;;4997244;28;20141;-75
2022/10/09 00:46:34;;;;;;;3.80;1.95;;;11.70;99.90;;;;;;5010007;28;20073;-75
2022/10/09 00:49:11;;;;;;;7.25;1.98;;;11.70;99.90;;;;;;4996009;28;20073;-75
2022/10/09 00:51:39;;;;;;;5.95;1.80;;;11.70;99.90;;;;;;5007672;28;20104;-75
2022/10/09 00:54:12;;;;;;;3.20;1.67;;;11.70;99.90;;;;;;4994660;28;20529;-75
2022/10/09 00:56:41;;;;;;;3.30;1.65;;;11.60;99.90;;;;;;5023427;28;20060;-75
2022/10/09 00:59:09;;;;;;;4.43;1.85;;;11.60;99.90;;;;;;5011065;28;20046;-75
2022/10/09 01:01:37;;;;;;;8.05;1.70;;;11.60;99.90;;;;;;5010790;28;20046;-75
2022/10/09 01:04:05;;;;;;;6.80;2.00;;;11.60;99.90;;;;;;5000835;28;20462;-75
2022/10/09 01:06:57;;;;;;;6.28;2.30;;;11.60;99.90;;;;;;5003343;28;20046;-76
2022/10/09 01:09:35;;;;;;;5.03;1.80;;;11.60;99.90;;;;;;4977637;28;20125;-75
2022/10/09 01:12:12;;;;;;;5.28;2.17;;;11.60;99.90;;;;;;5011581;28;20050;-75
2022/10/09 01:14:46;;;;;;;4.55;1.58;;;11.60;99.90;;;;;;5011705;28;20058;-76
2022/10/09 01:17:22;;;;;;;7.45;2.20;;;11.60;99.90;;;;;;4997517;28;20050;-76
2022/10/09 01:20:27;;;;;;;6.50;2.53;;;11.50;99.90;;;;;;4999541;28;20104;-76
2022/10/09 01:23:11;;;;;;;5.13;1.80;;;11.50;99.90;;;;;;5005190;28;20049;-76
2022/10/09 01:25:54;;;;;;;8.38;1.95;;;11.50;99.90;;;;;;4997512;28;20046;-75
2022/10/09 01:28:27;;;;;;;6.97;1.85;;;11.50;99.90;;;;;;5008808;28;20493;-75
2022/10/09 01:30:57;;;;;;;5.00;1.80;;;11.50;99.90;;;;;;4992475;28;20129;-76
2022/10/09 01:33:25;;;;;;;6.07;2.03;;;11.40;99.90;;;;;;4993221;28;20522;-76
2022/10/09 01:35:53;;;;;;;6.93;1.95;;;11.40;99.90;;;;;;5008395;28;20561;-75
2022/10/09 01:38:23;;;;;;;4.70;1.60;;;11.30;99.90;;;;;;5000272;28;20050;-75
2022/10/09 01:40:53;;;;;;;7.00;1.83;;;11.30;99.90;;;;;;5003483;28;20404;-75
2022/10/09 01:43:21;;;;;;;7.13;2.30;;;11.30;99.90;;;;;;5009217;28;20061;-75
2022/10/09 01:45:49;;;;;;;4.10;1.85;;;11.20;99.90;;;;;;5008178;28;20050;-76
2022/10/09 01:48:23;;;;;;;3.65;1.80;;;11.20;99.90;;;;;;4988131;28;20732;-76
2022/10/09 01:50:58;;;;;;;4.43;1.83;;;11.20;99.90;;;;;;5007888;28;20503;-75
2022/10/09 01:53:26;;;;;;;3.65;1.60;;;11.20;99.90;;;;;;4992974;28;20088;-75
2022/10/09 01:56:02;;;;;;;12.07;2.17;;;11.20;99.90;;;;;;4993663;28;20054;-75
2022/10/09 01:58:37;;;;;;;3.80;1.80;;;11.10;99.90;;;;;;5013407;28;20577;-75
2022/10/09 02:01:11;;;;;;;11.05;2.15;;;11.10;99.90;;;;;;4988835;28;20093;-75
2022/10/09 02:03:41;;;;;;;5.82;2.00;;;11.00;99.90;;;;;;5004030;28;20585;-75
2022/10/09 02:06:13;;;;;;;2.95;1.98;;;11.00;99.90;;;;;;4989797;28;20053;-75
2022/10/09 02:08:42;;;;;;;6.30;2.17;;;11.00;99.90;;;;;;5007763;28;20057;-75
2022/10/09 02:11:10;;;;;;;4.50;2.08;;;11.00;99.90;;;;;;4992592;28;20049;-75
2022/10/09 02:13:39;;;;;;;6.05;2.00;;;11.00;99.90;;;;;;4992268;28;20054;-75
2022/10/09 02:16:36;;;;;;;4.55;2.03;;;11.00;99.90;;;;;;4990471;28;20045;-75
2022/10/09 02:19:10;;;;;;;8.18;2.30;;;11.00;99.90;;;;;;5009421;28;20061;-75
2022/10/09 02:21:43;;;;;;;5.28;1.98;;;11.00;99.90;;;;;;5002339;28;20065;-75
2022/10/09 02:24:16;;;;;;;8.02;2.65;;;11.00;99.90;;;;;;5003529;28;20066;-75
2022/10/09 02:26:43;;;;;;;8.73;2.42;;;11.00;99.90;;;;;;4992486;28;20093;-75
2022/10/09 02:29:12;;;;;;;6.38;2.45;;;10.90;99.90;;;;;;5005728;28;20054;-75
2022/10/09 02:31:42;;;;;;;6.70;2.00;;;10.90;99.90;;;;;;4988685;28;20047;-76
2022/10/09 02:34:12;;;;;;;8.07;2.08;;;10.90;99.90;;;;;;4995311;28;20541;-75
2022/10/09 02:36:40;;;;;;;8.27;2.50;;;10.80;99.90;;;;;;4974334;28;20208;-76
2022/10/09 02:39:08;;;;;;;8.80;2.70;;;10.80;99.90;;;;;;5000148;28;20054;-75
2022/10/09 02:41:36;;;;;;;6.68;2.00;;;10.80;99.90;;;;;;5005366;28;20108;-76
2022/10/09 02:44:04;;;;;;;12.30;2.20;;;10.80;99.90;;;;;;4987900;28;20065;-76
2022/10/09 02:46:33;;;;;;;4.90;2.15;;;10.70;99.90;;;;;;4993284;28;20058;-76
2022/10/09 02:49:01;;;;;;;15.93;2.60;;;10.70;99.90;;;;;;4990436;28;20046;-74
2022/10/09 02:51:28;;;;;;;10.07;2.38;;;10.70;99.90;;;;;;4992277;28;20050;-75
2022/10/09 02:53:58;;;;;;;7.88;2.25;;;10.70;99.90;;;;;;5011004;28;20046;-76
2022/10/09 02:56:26;;;;;;;6.32;2.58;;;10.60;99.90;;;;;;4990076;28;20560;-76
2022/10/09 02:58:54;;;;;;;4.40;2.38;;;10.60;99.90;;;;;;5010799;28;20054;-76
2022/10/09 03:01:22;;;;;;;4.28;2.25;;;10.60;99.90;;;;;;5000711;28;20132;-76
2022/10/09 03:03:51;;;;;;;7.70;2.42;;;10.70;99.90;;;;;;5010756;28;20482;-76
2022/10/09 03:06:21;;;;;;;4.95;1.75;;;10.70;99.90;;;;;;5006369;28;20399;-76
2022/10/09 03:08:50;;;;;;;5.60;2.38;;;10.80;99.90;;;;;;4990960;28;20503;-76
2022/10/09 03:11:19;;;;;;;6.72;2.05;;;10.80;99.90;;;;;;5005097;28;20077;-76
2022/10/09 03:13:47;;;;;;;8.55;2.17;;;10.90;99.90;;;;;;4990678;28;20493;-76
2022/10/09 03:16:16;;;;;;;7.03;2.17;;;10.90;99.90;;;;;;5006269;28;20128;-76
2022/10/09 03:18:45;;;;;;;5.57;2.28;;;10.90;99.90;;;;;;5007909;28;20111;-75
2022/10/09 03:21:16;;;;;;;8.23;2.60;;;10.90;99.90;;;;;;4995399;28;20059;-76
2022/10/09 03:23:44;;;;;;;2.92;1.98;;;11.00;99.90;;;;;;4990184;28;20469;-75
2022/10/09 03:26:14;;;;;;;7.50;2.55;;;11.00;99.90;;;;;;4972703;28;20116;-76
2022/10/09 03:28:45;;;;;;;6.65;1.90;;;11.10;99.90;;;;;;5001102;28;20046;-75
2022/10/09 03:31:13;;;;;;;5.47;2.40;;;11.00;99.90;;;;;;4991857;28;20116;-76
2022/10/09 03:33:40;;;;;;;7.82;3.13;;;11.00;99.90;;;;;;4988765;28;20438;-75
2022/10/09 03:36:08;;;;;;;9.00;2.40;;;10.90;99.90;;;;;;4992582;28;20077;-76
2022/10/09 03:38:37;;;;;;;6.35;2.08;;;10.80;99.90;;;;;;5000601;28;20054;-75
2022/10/09 03:41:06;;;;;;;6.68;2.30;;;10.70;99.90;;;;;;4975291;28;20049;-75
2022/10/09 03:43:34;;;;;;;6.25;2.85;;;10.70;99.90;;;;;;4989587;28;20050;-75
2022/10/09 03:46:06;;;;;;;7.03;2.05;;;10.70;99.90;;;;;;4978340;28;20149;-75
2022/10/09 03:48:34;;;;;;;7.85;2.67;;;10.70;99.90;;;;;;4996175;28;20050;-75
2022/10/09 03:51:02;;;;;;;8.80;2.63;;;10.80;99.90;;;;;;5007418;28;20060;-75
2022/10/09 03:53:29;;;;;;;13.60;2.60;;;10.90;99.90;;;;;;5008065;28;20077;-76
2022/10/09 03:55:58;;;;;;;6.40;2.55;;;10.90;99.90;;;;;;4988639;28;20042;-75
2022/10/09 03:58:26;;;;;;;7.63;2.60;;;10.90;99.90;;;;;;4986755;28;20520;-75
2022/10/09 04:00:53;;;;;;;5.32;2.08;;;10.90;99.90;;;;;;4973400;28;20049;-75
2022/10/09 04:03:21;;;;;;;4.88;2.30;;;10.80;99.90;;;;;;4993284;28;20498;-75
2022/10/09 04:05:49;;;;;;;10.35;2.67;;;10.80;99.90;;;;;;4990826;28;20054;-75
2022/10/09 04:08:16;;;;;;;7.10;2.42;;;10.80;99.90;;;;;;4992780;28;20055;-76
2022/10/09 04:10:44;;;;;;;8.88;2.33;;;10.80;99.90;;;;;;4977339;28;20112;-75
2022/10/09 04:13:12;;;;;;;4.63;2.60;;;10.80;99.90;;;;;;4970739;28;20537;-75
2022/10/09 04:15:39;;;;;;;12.20;3.17;;;10.80;99.90;;;;;;4992733;28;20062;-76
2022/10/09 04:18:07;;;;;;;9.25;2.70;;;10.90;99.90;;;;;;5006469;28;20053;-75
2022/10/09 04:20:35;;;;;;;10.02;3.35;;;10.80;99.90;;;;;;5008747;28;20057;-75
2022/10/09 04:23:02;;;;;;;9.90;3.10;;;10.90;99.90;;;;;;5004738;28;20528;-75
2022/10/09 04:25:30;;;;;;;7.32;3.40;;;10.90;99.90;;;;;;5000924;28;20427;-75
2022/10/09 04:27:58;;;;;;;6.60;2.83;;;10.90;99.90;;;;;;5008236;28;20133;-75
2022/10/09 04:30:26;;;;;;;5.72;3.03;;;10.90;99.90;;;;;;4975921;28;20105;-75
2022/10/09 04:32:54;;;;;;;7.18;3.20;;;11.00;99.90;;;;;;4997683;28;20584;-75
2022/10/09 04:35:21;;;;;;;6.82;2.92;;;11.00;99.90;;;;;;5003308;28;20060;-76
2022/10/09 04:37:48;;;;;;;4.90;2.60;;;11.00;99.90;;;;;;4989775;28;20054;-75
2022/10/09 04:40:16;;;;;;;8.10;3.15;;;11.10;99.90;;;;;;4989293;28;20050;-76
2022/10/09 04:42:43;;;;;;;8.68;3.22;;;11.10;99.90;;;;;;5003021;28;20072;-75
2022/10/09 04:45:11;;;;;;;6.30;3.05;;;11.20;99.90;;;;;;5003821;28;20104;-76
2022/10/09 04:47:39;;;;;;;8.15;2.80;;;11.20;99.90;;;;;;4996518;28;20050;-75
2022/10/09 04:50:08;;;;;;;10.90;3.10;;;11.20;99.90;;;;;;4984492;28;20085;-76
2022/10/09 04:52:36;;;;;;;9.77;3.33;;;11.20;99.90;;;;;;5001397;28;20054;-75
2022/10/09 04:55:03;;;;;;;6.03;2.80;;;11.20;99.90;;;;;;4993406;28;20042;-76
2022/10/09 04:57:31;;;;;;;6.68;2.63;;;11.20;99.90;;;;;;5010576;28;20050;-76
2022/10/09 04:59:58;;;;;;;7.65;3.33;;;11.20;99.90;;;;;;5010375;28;20092;-76
2022/10/09 05:02:25;;;;;;;4.20;2.60;;;11.20;99.90;;;;;;4993048;28;20052;-76
2022/10/09 05:04:55;;;;;;;10.70;3.10;;;11.20;99.90;;;;;;4978067;28;20076;-75
2022/10/09 05:07:22;;;;;;;13.50;2.92;;;11.30;99.90;;;;;;5003886;28;20538;-76
2022/10/09 05:09:49;;;;;;;8.10;3.33;;;11.30;99.90;;;;;;4976810;28;20042;-76
2022/10/09 05:12:17;;;;;;;8.32;3.30;;;11.30;99.90;;;;;;5008695;28;20052;-75
2022/10/09 05:14:44;;;;;;;8.98;2.85;;;11.30;99.90;;;;;;4995393;28;20822;-75
2022/10/09 05:17:11;;;;;;;11.68;3.30;;;11.30;99.90;;;;;;4976750;28;20046;-76
2022/10/09 05:19:39;;;;;;;8.18;4.13;;;11.40;99.90;;;;;;4993377;28;20066;-74
2022/10/09 05:22:07;;;;;;;7.50;2.83;;;11.40;99.90;;;;;;4987961;28;20050;-75
2022/10/09 05:24:35;;;;;;;9.07;3.08;;;11.40;99.90;;;;;;5008401;28;20333;-76
2022/10/09 05:27:02;;;;;;;11.70;3.72;;;11.40;99.90;;;;;;5007424;28;20045;-76
2022/10/09 05:29:29;;;;;;;8.63;3.35;;;11.30;99.90;;;;;;4986606;28;20045;-76
2022/10/09 05:31:57;;;;;;;3.95;2.80;;;11.30;99.90;;;;;;4995302;28;20054;-73
2022/10/09 05:34:24;;;;;;;9.48;3.00;;;11.40;99.90;;;;;;4994085;28;20046;-73
2022/10/09 05:36:52;;;;;;;8.93;2.97;;;11.50;99.90;;;;;;5012566;28;20050;-72
2022/10/09 05:39:20;;;;;;;10.43;3.17;;;11.40;99.90;;;;;;5010912;28;20220;-75
2022/10/09 05:41:48;;;;;;;6.32;2.95;;;11.40;99.90;;;;;;5012359;28;20050;-76
2022/10/09 05:44:15;;;;;;;6.63;2.92;;;11.40;99.90;;;;;;4994406;28;20088;-76
2022/10/09 05:46:42;;;;;;;12.27;3.97;;;11.40;99.90;;;;;;5012746;28;20076;-75
2022/10/09 05:49:11;;;;;;;7.72;2.92;;;11.50;99.90;;;;;;5011605;28;20050;-77
2022/10/09 05:51:41;;;;;;;5.20;2.65;;;11.50;99.90;;;;;;5012752;28;20042;-76
2022/10/09 05:54:13;;;;;;;7.32;2.55;;;11.60;99.90;;;;;;4993482;28;20418;-75
2022/10/09 05:56:43;;;;;;;7.00;2.70;;;11.70;99.90;;;;;;5012051;28;20600;-75
2022/10/09 05:59:13;;;;;;;12.55;3.08;;;11.90;99.90;;;;;;5010672;28;20050;-75
2022/10/09 06:01:43;;;;;;;13.32;3.03;;;11.90;99.90;;;;;;5012059;28;20061;-74
2022/10/09 06:04:15;;;;;;;5.32;2.42;;;12.00;99.90;;;;;;4977871;28;20059;-75
2022/10/09 06:06:46;;;;;;;8.38;3.10;;;12.00;99.90;;;;;;5009641;28;20130;-76
2022/10/09 06:09:17;;;;;;;11.48;3.28;;;11.90;99.90;;;;;;4996051;28;20053;-75
2022/10/09 06:11:46;;;;;;;13.38;2.83;;;11.90;99.90;;;;;;5010055;28;20165;-76
2022/10/09 06:14:17;;;;;;;5.47;3.03;;;11.90;99.90;;;;;;4994723;28;20050;-73
2022/10/09 06:16:46;;;;;;;6.47;3.00;;;12.00;99.90;;;;;;4984170;28;20649;-75
2022/10/09 06:19:16;;;;;;;8.15;2.97;;;12.00;99.90;;;;;;4995895;28;20498;-75
2022/10/09 06:21:44;;;;;;;8.00;2.65;;;12.10;99.90;;;;;;5002445;28;20057;-76
2022/10/09 06:24:19;;;;;;;9.93;2.95;;;12.10;99.90;;;;;;5009398;28;20069;-76
2022/10/09 06:26:48;;;;;;;8.38;2.67;;;12.10;99.90;;;;;;5009492;28;20153;-72
2022/10/09 06:29:15;;;;;;;6.72;2.28;;;12.10;99.90;;;;;;4993003;28;20041;-72
2022/10/09 06:31:42;;;;;;;8.07;2.75;;;12.00;99.90;;;;;;5000551;28;20046;-76
2022/10/09 06:34:10;;;;;;;7.85;2.88;;;12.00;99.90;;;;;;5011184;28;20534;-74
2022/10/09 06:36:38;;;;;;;10.10;2.85;;;12.00;99.90;;;;;;5024083;28;20426;-78
2022/10/09 06:39:07;;;;;;;8.68;3.10;;;12.10;99.90;;;;;;5019049;28;20513;-75
2022/10/09 06:41:35;;;;;;;10.98;2.78;;;12.10;99.90;;;;;;5003519;28;20053;-76
2022/10/09 06:44:15;;;;;;;9.57;2.92;;;12.20;99.90;;;;;;5001034;28;20050;-74
2022/10/09 06:46:49;;;;;;;9.13;2.67;;;12.20;99.90;;;;;;5000002;28;20053;-75
2022/10/09 06:49:17;;;;;;;9.90;3.10;;;12.20;99.90;;;;;;5010198;28;20444;-76
2022/10/09 06:51:45;;;;;;;12.63;3.78;;;12.20;99.90;;;;;;5010031;28;20136;-75
2022/10/09 06:54:16;;;;;;;13.55;3.00;;;12.30;99.90;;;;;;5008634;28;20164;-75
2022/10/09 06:56:44;;;;;;;12.27;3.97;;;12.40;99.90;;;;;;5007985;28;20076;-73
2022/10/09 06:59:13;;;;;;;6.93;2.25;;;12.40;99.90;;;;;;5005275;28;20046;-76
2022/10/09 07:01:41;;;;;;;6.97;2.40;;;12.40;99.90;;;;;;5003921;28;20088;-76
2022/10/09 07:04:11;;;;;;;7.75;2.45;;;12.50;99.90;;;;;;5005807;28;20054;-73
2022/10/09 07:06:41;;;;;;;7.05;2.33;;;12.60;99.90;;;;;;5007348;28;20058;-74
2022/10/09 07:09:11;;;;;;;3.22;1.90;;;12.60;99.90;;;;;;4990112;28;20061;-73
2022/10/09 07:11:41;;;;;;;10.35;2.78;;;12.50;99.90;;;;;;4987960;28;20489;-73
2022/10/09 07:14:11;;;;;;;9.32;2.70;;;12.60;99.90;;;;;;5008175;28;20133;-73
2022/10/09 07:16:42;;;;;;;8.68;2.20;;;12.60;99.90;;;;;;5005910;28;20050;-73
2022/10/09 07:19:10;;;;;;;8.13;2.35;;;12.60;99.90;;;;;;5000748;28;20065;-73
2022/10/09 07:21:40;;;;;;;7.28;2.80;;;12.70;99.90;;;;;;5001330;28;20399;-76
2022/10/09 07:24:08;;;;;;;6.80;2.08;;;13.00;99.90;;;;;;5003592;28;20546;-77
2022/10/09 07:26:38;;;;;;;4.95;1.90;;;13.10;99.90;;;;;;4988615;28;20590;-77
2022/10/09 07:29:07;;;;;;;10.93;2.78;;;13.30;99.90;;;;;;4977055;28;20150;-76
2022/10/09 07:31:34;;;;;;;9.98;3.05;;;13.30;99.90;;;;;;5006513;28;20081;-78
2022/10/09 07:34:05;;;;;;;10.57;2.33;;;13.30;99.90;;;;;;4991082;28;20053;-77
2022/10/09 07:36:32;;;;;;;6.38;2.50;;;13.30;99.90;;;;;;4995841;28;20054;-77
2022/10/09 07:39:00;;;;;;;9.82;2.72;;;13.20;99.90;;;;;;4999054;28;20042;-77
2022/10/09 07:41:29;;;;;;;8.30;2.00;;;13.30;99.90;;;;;;5004553;28;20387;-76
2022/10/09 07:43:57;;;;;;;5.25;1.90;;;13.30;99.90;;;;;;5007034;28;20049;-79
2022/10/09 07:46:27;;;;;;;8.45;2.20;;;13.30;99.90;;;;;;5004829;28;20057;-78
2022/10/09 07:48:55;;;;;;;9.38;2.63;;;13.40;99.90;;;;;;4991710;28;20050;-76
2022/10/09 07:51:27;;;;;;;8.70;2.67;;;13.80;99.90;;;;;;5001389;28;20046;-76
2022/10/09 07:53:56;;;;;;;7.55;3.05;;;14.10;99.90;;;;;;5002335;28;20470;-78
2022/10/09 07:56:27;;;;;;;7.88;2.38;;;14.30;99.90;;;;;;4991036;28;20479;-78
2022/10/09 07:58:57;;;;;;;9.43;3.25;;;14.30;99.90;;;;;;4995532;28;20116;-78
2022/10/09 08:01:26;;;;;;;8.68;2.88;;;14.50;99.90;;;;;;5001170;28;20084;-75
2022/10/09 08:03:55;;;;;;;8.60;2.45;;;15.00;99.90;;;;;;4965045;28;20096;-77
2022/10/09 08:06:24;;;;;;;6.18;2.10;;;15.50;99.90;;;;;;4998621;28;20124;-73
2022/10/09 08:08:53;;;;;;;5.97;1.83;;;16.80;99.90;;;;;;4993257;28;20054;-74
2022/10/09 08:11:22;;;;;;;7.45;2.00;;;17.40;99.90;;;;;;4990120;28;20418;-76
2022/10/09 08:13:51;;;;;;;5.95;2.15;;;18.20;99.90;;;;;;4999431;28;20518;-81
2022/10/09 08:16:23;;;;;;;5.40;1.50;;;18.70;99.90;;;;;;4975246;28;20073;-80
2022/10/09 08:18:56;;;;;;;6.53;2.05;;;19.60;99.90;;;;;;5005521;28;20495;-80
2022/10/09 08:21:27;;;;;;;7.47;2.05;;;19.80;99.90;;;;;;5002574;28;20054;-83
2022/10/09 08:23:58;;;;;;;5.43;1.77;;;19.80;99.90;;;;;;5004513;28;20049;-77
2022/10/09 08:26:29;;;;;;;7.25;1.77;;;19.70;99.90;;;;;;4989422;28;20053;-77
2022/10/09 08:28:59;;;;;;;12.50;2.08;;;18.90;99.90;;;;;;5007004;28;20049;-78
2022/10/09 08:31:27;;;;;;;4.57;1.88;;;18.70;99.90;;;;;;5008182;28;20046;-79
2022/10/09 08:33:56;;;;;;;7.65;1.58;;;18.80;99.90;;;;;;5009962;28;20045;-79
2022/10/09 08:36:26;;;;;;;5.07;1.85;;;18.60;99.90;;;;;;5009702;28;20042;-79
2022/10/09 08:38:55;;;;;;;9.20;2.85;;;18.10;99.90;;;;;;5010378;28;20506;-79
2022/10/09 08:41:39;;;;;;;8.13;2.55;;;17.90;99.90;;;;;;5006245;28;20042;-81
2022/10/09 08:44:14;;;;;;;7.50;2.25;;;17.60;99.90;;;;;;5008534;28;20057;-80
2022/10/09 08:47:04;;;;;;;8.98;2.47;;;17.30;99.90;;;;;;5007193;28;20140;-78
2022/10/09 08:49:42;;;;;;;5.82;1.90;;;17.00;99.90;;;;;;4993528;28;20065;-80
2022/10/09 08:52:31;;;;;;;4.05;2.00;;;16.80;99.90;;;;;;5009108;28;20057;-74
2022/10/09 08:55:06;;;;;;;9.38;2.05;;;17.50;99.90;;;;;;5003998;28;20049;-75
2022/10/09 08:57:35;;;;;;;5.07;1.92;;;19.00;99.90;;;;;;5006360;28;20050;-75
2022/10/09 09:00:02;;;;;;;5.60;1.70;;;20.10;99.90;;;;;;5007509;28;20068;-76
2022/10/09 09:02:54;;;;;;;4.25;1.42;;;20.20;99.90;;;;;;5004992;28;20145;-75
2022/10/09 09:05:34;;;;;;;8.30;1.42;;;20.50;99.90;;;;;;4993385;28;20449;-74
2022/10/09 09:08:16;;;;;;;5.80;1.58;;;20.60;99.90;;;;;;5005834;28;20058;-79
2022/10/09 09:10:53;;;;;;;2.10;1.00;;;20.20;99.90;;;;;;5008348;28;20058;-79
2022/10/09 09:13:39;;;;;;;3.97;2.25;;;19.60;99.90;;;;;;4973413;28;20050;-81
2022/10/09 09:16:12;;;;;;;6.22;2.55;;;19.20;99.90;;;;;;5006614;28;20077;-79
2022/10/09 09:18:46;;;;;;;4.95;1.40;;;19.00;99.90;;;;;;5008935;28;20045;-74
2022/10/09 09:21:31;;;;;;;4.15;1.00;;;18.80;99.90;;;;;;4970939;28;20042;-76
2022/10/09 09:24:03;;;;;;;2.38;1.00;;;18.40;99.90;;;;;;5007122;28;20049;-74
2022/10/09 09:26:31;;;;;;;3.97;1.20;;;18.00;99.90;;;;;;5006493;28;20149;-75
2022/10/09 09:29:03;;;;;;;6.15;1.20;;;17.70;99.90;;;;;;5008819;28;20057;-78
2022/10/09 09:31:37;;;;;;;2.05;0.80;;;17.50;99.90;;;;;;5007914;28;20465;-80
2022/10/09 09:34:12;;;;;;;5.45;0.80;;;17.10;99.90;;;;;;5005840;28;20418;-74
2022/10/09 09:36:44;;;;;;;3.22;1.00;;;16.90;99.90;;;;;;5007093;28;20100;-73
2022/10/09 09:39:13;;;;;;;4.35;1.10;;;16.80;99.90;;;;;;5007424;28;20050;-73
2022/10/09 09:41:43;;;;;;;4.13;0.68;;;16.70;99.90;;;;;;5000862;28;20576;-73
2022/10/09 09:44:14;;;;;;;3.55;1.08;;;16.70;99.90;;;;;;5007341;28;20056;-78
2022/10/09 09:46:44;;;;;;;3.08;0.73;;;16.60;99.90;;;;;;5007091;28;20037;-80
2022/10/09 09:49:20;;;;;;;2.60;0.70;;;16.70;99.90;;;;;;5006861;28;20100;-79
2022/10/09 09:51:50;;;;;;;4.90;0.95;;;17.40;99.90;;;;;;5007104;28;20119;-79
2022/10/09 09:54:22;;;;;;;4.20;0.50;;;18.10;95.40;;;;;;4990214;28;20108;-78
2022/10/09 09:56:54;;;;;;;0.68;0.45;;;19.20;92.00;;;;;;5007752;28;20061;-81
2022/10/09 09:59:33;;;;;;;4.32;0.47;;;20.00;86.30;;;;;;5006760;28;20060;-79
2022/10/09 10:02:08;;;;;;;2.58;0.68;;;21.20;80.70;;;;;;5004882;28;20572;-79
2022/10/09 10:04:36;;;;;;;0.77;0.70;;;22.10;73.30;;;;;;4972937;28;20136;-81
2022/10/09 10:07:04;;;;;;;4.20;1.75;;;23.20;69.50;;;;;;5006387;28;20158;-78
2022/10/09 10:09:33;;;;;;;1.05;0.50;;;24.00;67.20;;;;;;5008076;28;20053;-81
2022/10/09 10:12:03;;;;;;;2.58;0.95;;;24.30;63.90;;;;;;5001887;28;20046;-79
2022/10/09 10:14:31;;;;;;;2.10;0.60;;;24.30;64.10;;;;;;5004539;28;20073;-78
2022/10/09 10:17:01;;;;;;;2.00;0.57;;;24.20;63.70;;;;;;5005285;28;21125;-78
2022/10/09 10:19:33;;;;;;;0.93;0.60;;;23.50;64.00;;;;;;5007896;28;20072;-79
2022/10/09 10:22:04;;;;;;;1.00;0.85;;;22.40;67.00;;;;;;5004408;28;20054;-79
2022/10/09 10:24:40;;;;;;;1.58;0.70;;;21.20;70.50;;;;;;5005535;28;20049;-79
2022/10/09 10:27:20;;;;;;;0.85;0.60;;;20.50;73.90;;;;;;5007551;28;20153;-78
2022/10/09 10:29:51;;;;;;;3.88;1.10;;;20.10;76.30;;;;;;5001783;28;20050;-77
2022/10/09 10:32:27;;;;;;;1.05;0.73;;;19.70;79.90;;;;;;5001668;28;20069;-79
2022/10/09 10:35:04;;;;;;;2.83;0.90;;;19.70;79.30;;;;;;5003117;28;20069;-76
2022/10/09 10:37:45;;;;;;;1.95;0.80;;;19.90;79.50;;;;;;5003613;28;20205;-75
2022/10/09 10:40:22;;;;;;;3.15;0.98;;;20.30;82.10;;;;;;4985703;28;20053;-74
2022/10/09 10:43:04;;;;;;;2.40;0.82;;;20.50;80.20;;;;;;5003751;28;20457;-76
2022/10/09 10:45:44;;;;;;;1.80;0.75;;;21.10;76.80;;;;;;5003161;28;20064;-75
2022/10/09 10:48:22;;;;;;;3.45;1.10;;;21.80;76.00;;;;;;4999854;28;20049;-75
2022/10/09 10:51:02;;;;;;;0.60;0.60;;;22.10;74.40;;;;;;4985928;28;20045;-75
2022/10/09 10:53:45;;;;;;;0.90;0.60;;;22.10;72.60;;;;;;4984505;28;20053;-79
2022/10/09 10:56:19;;;;;;;;;;;21.10;74.00;;;;;;5003035;28;20148;-77
2022/10/09 10:58:57;;;;;;;1.30;1.02;;;20.00;77.50;;;;;;5004555;28;19932;-79
2022/10/09 11:01:36;;;;;;;2.28;1.92;;;19.70;80.00;;;;;;5004389;28;20568;-78
2022/10/09 11:04:37;;;;;;;3.40;0.70;;;20.00;77.60;;;;;;4971702;28;20567;-79
2022/10/09 11:07:18;;;;;;;1.67;0.75;;;20.20;75.00;;;;;;5003733;28;20135;-79
2022/10/09 11:09:57;;;;;;;2.03;0.90;;;19.80;75.80;;;;;;5006431;28;20108;-77
2022/10/09 11:12:37;;;;;;;5.40;0.63;;;19.90;75.20;;;;;;5004106;28;20049;-77
2022/10/09 11:15:18;;;;;;;1.48;0.70;;;20.10;73.00;;;;;;5004637;28;20491;-79
2022/10/09 11:17:56;;;;;;;1.60;1.08;;;20.70;71.30;;;;;;5003501;28;20541;-76
2022/10/09 11:21:02;;;;;;;3.92;0.60;;;21.20;69.20;;;;;;5005085;28;20077;-76
2022/10/09 11:23:46;;;;;;;4.22;0.60;;;22.10;67.30;;;;;;5001544;28;20057;-76
2022/10/09 11:26:26;;;;;;;6.40;0.77;;;22.80;65.50;;;;;;4998029;28;20054;-77
2022/10/09 11:29:14;;;;;;;4.78;0.40;;;23.70;62.80;;;;;;4984709;28;20046;-85
2022/10/09 11:31:47;;;;;;;1.58;0.50;;;24.90;59.40;;;;;;4986778;28;20542;-79
2022/10/09 11:34:22;;;;;;;1.08;0.50;;;25.70;57.20;;;;;;4985430;28;20058;-80
2022/10/09 11:36:50;;;;;;;1.63;0.73;;;25.70;55.90;;;;;;4989540;28;20080;-80
2022/10/09 11:39:22;;;;;;;2.35;0.80;;;25.00;55.80;;;;;;4975682;28;20061;-80
2022/10/09 11:41:53;;;;;;;4.25;1.30;;;23.60;58.70;;;;;;4978372;28;20403;-80
2022/10/09 11:44:37;;;;;;;2.20;0.70;;;22.20;60.80;;;;;;4985953;28;20514;-82
2022/10/09 11:47:17;;;;;;;3.22;1.00;;;20.70;64.40;;;;;;4970166;28;20353;-79
2022/10/09 11:50:18;;;;;;;0.50;0.40;;;19.50;68.30;;;;;;4989002;28;20054;-78
2022/10/09 11:52:55;;;;;;;1.52;0.75;;;18.70;70.90;;;;;;4969465;28;20054;-78
2022/10/09 11:55:25;;;;;;;2.08;0.50;;;18.30;72.80;;;;;;4992445;28;20046;-79
2022/10/09 11:57:53;;;;;;;1.90;0.90;;;18.10;74.30;;;;;;4995161;28;20507;-80
2022/10/09 12:00:32;;;;;;;3.20;0.57;;;18.10;74.90;;;;;;4994147;28;20120;-82
2022/10/09 12:03:03;;;;;;;0.82;0.43;;;18.10;72.70;;;;;;4991748;28;20074;-79
2022/10/09 12:05:40;;;;;;;1.73;0.60;;;18.10;73.60;;;;;;4973868;28;20491;-77
2022/10/09 12:08:12;;;;;;;1.45;0.30;;;18.40;75.10;;;;;;5005031;28;20100;-79
2022/10/09 12:10:43;;;;;;;8.38;0.65;;;18.20;73.90;;;;;;5007918;28;20037;-77
2022/10/09 12:13:44;;;;;;;3.22;0.40;;;18.00;75.20;;;;;;5009074;28;20042;-81
2022/10/09 12:16:39;;;;;;;1.80;0.47;;;17.90;76.80;;;;;;5010112;28;20073;-80
2022/10/09 12:19:17;;;;;;;2.08;0.57;;;17.70;76.30;;;;;;5010585;28;20521;-80
2022/10/09 12:21:51;;;;;;;1.52;0.55;;;17.10;78.00;;;;;;4994137;28;20046;-79
2022/10/09 12:24:22;;;;;;;1.13;0.98;;;16.40;81.40;;;;;;4993285;28;20062;-78
2022/10/09 12:26:53;;;;;;;6.03;1.38;;;15.90;84.70;;;;;;4998867;28;20137;-77
2022/10/09 12:29:29;;;;;;;1.83;0.47;;;15.70;85.70;;;;;;4975719;28;20061;-79
2022/10/09 12:32:05;;;;;;;0.70;0.52;;;15.40;86.40;;;;;;4993000;28;20073;-81
2022/10/09 12:34:37;;;;;;;1.05;0.65;;;15.20;88.90;;;;;;4993247;28;20042;-80
2022/10/09 12:37:16;;;;;;;1.90;0.60;;;15.30;88.60;;;;;;5007609;28;20525;-80
2022/10/09 12:39:46;;;;;;;1.67;0.50;;;15.40;89.40;;;;;;4997268;28;20430;-80
2022/10/09 12:42:20;;;;;;;3.85;0.60;;;15.50;88.90;;;;;;4980392;28;20104;-82
2022/10/09 12:44:49;;;;;;;0.50;0.40;;;15.40;90.00;;;;;;5004007;28;20049;-79
2022/10/09 12:47:25;;;;;;;2.80;0.40;;;15.20;90.60;;;;;;5007814;28;20494;-80
2022/10/09 12:50:17;;;;;;;2.63;0.55;;;15.40;90.80;;;;;;5004669;28;20045;-79
2022/10/09 12:52:49;;;;;;;2.83;0.50;;;16.30;90.20;;;;;;4990034;28;20517;-79
2022/10/09 12:55:26;;;;;;;7.50;0.60;;;17.30;88.00;;;;;;5003923;28;20081;-78
2022/10/09 12:57:55;;;;;;;1.40;1.23;;;17.70;85.10;;;;;;5002138;28;20510;-79
2022/10/09 13:00:22;;;;;;;1.00;0.40;;;17.80;84.30;;;;;;4984572;28;20050;-79
2022/10/09 13:02:51;;;;;;;6.05;0.75;;;17.80;84.20;;;;;;5000629;28;20042;-80
2022/10/09 13:05:18;;;;;;;0.90;0.40;;;17.30;84.70;;;;;;4986487;28;20434;-77
2022/10/09 13:07:52;;;;;;;1.60;0.30;;;16.90;86.30;;;;;;5003029;28;20108;-79
2022/10/09 13:10:23;;;;;;;4.53;0.70;;;17.20;86.80;;;;;;4978122;28;20046;-77